Aiguafreda





Hora UTC 20:00
Temperatura 2.4 ºC
Sòl 15 cm 1.0 ºC
Humitat 89.6 %
Pressió 999.8 hPa
Pluja 0.0 mm
Velocitat vent 0.3 km/h
Direcció vent ESE
Radiació solar 1.3 W/m²

Dades diàries 2021-11-27



Hora UTC (hivern +1h; estiu +2h)
Temperatura (ºC) Humitat (%) Pressió (hPa) Velocitat vent (km/h) Precipitació (mm) Radiació solar (W/m²)
Hora UTC Aire Sòl 15 cm Humitat Pressió Vel. Dir. Vel. Max Dir. Intent. màx 5 min. Rad. Sol.
00:05 2.0 0.9 95.2 1001.6 0.7 NE 0.7 NE 0.0 0.3
00:10 1.9 0.9 95.4 1001.5 0.9 NNE 3.4 NNE 0.0 0.3
00:15 1.9 0.8 95.6 1001.4 0.0 NNE 3.4 NNE 0.0 0.5
00:20 1.8 0.8 95.6 1001.3 0.9 NE 6.1 NE 0.0 0.8
00:25 1.8 0.9 95.7 1001.3 0.0 NW 3.4 NW 0.0 0.9
00:30 1.7 0.8 95.6 1001.3 0.6 W 6.1 W 0.0 1.2
00:35 1.6 0.6 95.6 1001.3 0.0 NNE 0.0 W 0.0 1.1
00:40 1.5 0.5 95.7 1001.3 0.0 NNE 0.0 NE 0.0 0.4
00:45 1.5 0.5 95.9 1001.2 0.4 NW 3.4 WNW 0.0 0.3
00:50 1.5 0.5 96.0 1001.2 0.5 N 3.4 NNW 0.0 0.2
00:55 1.5 0.4 96.1 1001.1 0.4 NNW 3.4 N 0.0 0.2
01:00 1.5 0.5 96.1 1001.0 0.0 NNW 3.4 NNW 0.0 0.3
01:05 1.4 0.5 96.1 1001.0 0.6 ENE 6.1 ENE 0.0 0.2
01:10 1.4 0.5 96.0 1000.8 0.0 NNE 0.0 ENE 0.0 0.2
01:15 1.4 0.5 96.2 1000.8 2.4 NW 8.8 NW 0.0 0.3
01:20 1.4 0.6 96.2 1000.8 3.2 NNE 6.1 NE 0.0 0.3
01:25 1.4 0.6 96.3 1000.9 2.2 W 8.8 WSW 0.0 0.3
01:30 1.4 0.6 96.1 1000.8 2.0 NE 6.1 NE 0.0 0.3
01:35 1.3 0.5 96.1 1000.7 2.1 NE 6.1 N 0.0 0.3
01:40 1.3 0.5 96.1 1000.7 0.2 NE 3.4 NNE 0.0 0.3
01:45 1.3 0.4 96.2 1000.6 0.5 NNE 3.4 NE 0.0 0.2
01:50 1.2 0.3 96.3 1000.5 2.7 NNE 6.1 NNE 0.0 0.3
01:55 1.5 0.4 96.8 1000.4 1.1 NNE 6.1 N 0.0 0.3
02:00 1.5 0.5 96.5 1000.4 1.3 SE 6.1 SSE 0.0 0.3
02:05 1.2 0.3 96.0 1000.4 0.0 NNE 0.0 SE 0.0 0.3
02:10 1.1 0.1 96.0 1000.2 0.0 NNE 0.0 SSE 0.0 0.3
02:15 1.0 0.0 96.0 1000.2 0.0 NNE 0.0 SSE 0.0 0.3
02:20 0.9 -0.1 96.0 1000.1 0.0 NNE 0.0 ESE 0.0 0.3
02:25 0.9 -0.1 96.2 1000.1 0.0 NNE 0.0 ESE 0.0 0.3
02:30 0.8 -0.2 96.4 999.9 0.0 NNE 0.0 ESE 0.0 0.3
02:35 0.9 0.0 96.5 999.9 2.8 NE 8.8 NE 0.0 0.3
02:40 0.9 0.1 96.4 999.8 1.4 NNE 8.8 NE 0.0 0.3
02:45 0.9 0.0 96.4 999.7 0.9 WSW 6.1 NW 0.0 0.3
02:50 0.8 -0.1 96.3 999.6 1.2 SE 6.1 ESE 0.0 0.3
02:55 1.0 0.2 96.7 999.6 3.4 E 8.8 ENE 0.0 0.3
03:00 1.2 0.4 96.6 999.5 1.4 ENE 8.8 NNE 0.0 0.2
03:05 1.1 0.3 96.3 999.5 1.0 SE 6.1 E 0.0 0.3
03:10 1.2 0.4 96.3 999.4 4.5 ENE 14.2 NE 0.0 0.3
03:15 1.3 0.6 96.3 999.3 2.5 ENE 11.5 NNE 0.0 0.3
03:20 1.4 0.7 96.2 999.2 3.5 ENE 11.5 NE 0.0 0.3
03:25 1.5 0.7 96.1 999.2 0.7 NE 6.1 ENE 0.0 0.2
03:30 1.4 0.5 95.7 999.2 0.2 E 3.4 E 0.0 0.3
03:35 1.4 0.6 95.8 999.2 2.1 NE 8.8 NE 0.0 0.3
03:40 1.5 0.7 95.9 999.0 2.8 NE 8.8 NNE 0.0 0.2
03:45 1.6 0.7 96.0 999.0 0.3 NNE 6.1 NNE 0.0 0.3
03:50 1.7 0.7 95.8 998.9 0.4 NNE 6.1 NNW 0.0 0.3
03:55 1.7 0.8 95.7 998.8 3.1 NE 11.5 E 0.0 0.3
04:00 1.7 0.8 95.7 998.8 3.3 NNE 8.8 NE 0.0 0.3
04:05 1.7 0.7 95.4 998.8 2.0 WNW 8.8 W 0.0 0.3
04:10 1.6 0.9 95.1 998.7 3.7 NW 8.8 WNW 0.0 0.3
04:15 1.5 0.7 94.6 998.7 2.2 NW 6.1 WNW 0.0 0.3
04:20 1.5 0.8 94.8 998.7 2.4 NW 6.1 NW 0.0 0.3
04:25 1.5 0.8 94.7 998.6 2.4 NNE 11.5 NNE 0.0 0.3
04:30 1.6 0.9 94.7 998.6 4.5 ENE 14.2 NE 0.0 0.3
04:35 1.6 1.0 94.6 998.6 2.1 NE 11.5 NE 0.0 0.3
04:40 1.6 0.8 94.3 998.5 0.6 NNW 6.1 N 0.0 0.3
04:45 1.6 0.8 94.4 998.4 4.6 NNE 8.8 NE 0.0 0.3
04:50 1.6 0.9 94.4 998.3 1.7 NNE 6.1 NE 0.0 0.2
04:55 1.5 0.8 94.2 998.2 2.4 NNE 8.8 NNE 0.0 0.3
05:00 1.5 0.7 94.2 998.1 0.0 WNW 3.4 WNW 0.0 0.3
05:05 1.4 0.6 94.2 998.0 0.1 WNW 3.4 WSW 0.0 0.3
05:10 1.4 0.6 94.3 997.9 0.8 SE 6.1 SSE 0.0 0.2
05:15 1.6 0.8 94.4 998.0 2.4 SSE 6.1 S 0.0 0.3
05:20 1.7 0.8 94.2 998.0 2.8 E 11.5 NE 0.0 0.3
05:25 1.7 0.8 94.0 998.0 0.6 N 3.4 SE 0.0 0.3
05:30 1.7 0.8 93.9 998.0 0.4 ENE 6.1 ENE 0.0 0.3
05:35 1.7 0.8 93.9 998.0 1.3 E 8.8 NE 0.0 0.3
05:40 1.8 1.0 94.1 997.8 5.1 ENE 11.5 ENE 0.0 0.3
05:45 1.8 1.2 94.0 997.8 3.5 NNW 8.8 ENE 0.0 0.3
05:50 2.0 1.3 93.7 997.8 4.2 ENE 14.2 NNE 0.0 0.3
05:55 2.1 1.6 93.3 997.7 6.3 NE 14.2 NE 0.0 0.3
06:00 2.4 1.9 92.7 997.7 3.1 NE 8.8 ESE 0.0 0.3
06:05 2.5 2.0 91.9 997.7 1.6 NNW 6.1 WNW 0.0 0.3
06:10 2.7 2.3 91.4 997.6 3.6 NW 8.8 SE 0.0 0.3
06:15 2.9 2.4 90.9 997.6 3.1 NNE 11.5 ENE 0.0 0.3
06:20 3.2 2.6 90.6 997.6 4.5 NE 11.5 NE 0.0 0.3
06:25 3.4 2.8 90.0 997.5 3.2 NNE 11.5 ENE 0.0 0.3
06:30 3.6 3.0 89.4 997.4 3.7 NE 8.8 NNW 0.0 0.3
06:35 3.7 2.9 88.4 997.3 2.9 N 6.1 N 0.0 0.6
06:40 3.7 2.7 87.7 997.2 3.7 N 16.9 ENE 0.0 1.1
06:45 3.7 2.8 87.3 997.2 3.5 NNW 11.5 S 0.0 1.8
06:50 3.8 2.8 86.7 997.2 3.4 ENE 11.5 E 0.0 2.7
06:55 3.8 3.0 86.6 997.1 5.8 ENE 11.5 ENE 0.0 3.7
07:00 3.9 3.2 86.3 997.1 5.8 ENE 14.2 ENE 0.0 3.6
07:05 3.9 3.2 86.3 997.2 4.3 NE 11.5 ENE 0.0 6.1
07:10 3.9 3.3 86.2 997.2 4.1 E 8.8 ESE 0.0 9.0
07:15 4.0 3.4 86.4 997.2 2.5 E 11.5 ENE 0.0 10.5
07:20 4.1 3.5 86.4 997.2 4.7 ENE 11.5 NE 0.0 10.7
07:25 4.3 3.8 85.9 997.2 6.0 ENE 14.2 E 0.0 13.2
07:30 4.5 3.9 85.1 997.2 3.0 NNE 8.8 NE 0.0 13.2
07:35 4.6 4.1 84.7 997.2 5.3 ENE 11.5 ENE 0.0 14.1
07:40 4.8 4.2 84.6 997.2 5.0 NNE 16.9 ENE 0.0 15.1
07:45 5.0 4.4 83.7 997.1 7.6 NE 19.6 NE 0.0 16.7
07:50 5.1 4.6 83.1 997.0 5.3 NNE 11.5 SE 0.0 15.6
07:55 5.3 4.7 82.8 996.9 7.9 NE 16.9 NE 0.0 14.1
08:00 5.4 4.8 82.5 997.2 6.3 NE 22.3 NE 0.0 16.1
08:05 5.5 5.0 82.2 997.3 8.1 ENE 19.6 ENE 0.0 18.3
08:10 5.6 5.1 82.2 997.2 6.6 ENE 16.9 NE 0.0 20.7
08:15 5.7 5.3 82.4 997.3 8.5 ENE 22.3 ENE 0.0 30.1
08:20 5.9 5.6 81.7 997.2 10.5 ENE 22.3 NE 0.0 38.3
08:25 6.0 5.8 81.0 997.2 6.5 NE 16.9 NNE 0.0 39.2
08:30 6.1 5.9 80.8 997.3 5.9 NE 14.2 ENE 0.0 36.0
08:35 6.1 6.0 80.7 997.3 5.4 NNE 16.9 NE 0.0 47.1
08:40 6.2 6.1 80.8 997.1 6.8 NNE 22.3 NNW 0.0 53.6
08:45 6.2 6.2 80.8 997.1 8.2 NE 22.3 E 0.0 47.8
08:50 6.2 6.3 79.9 997.0 8.6 NNE 22.3 N 0.0 47.1
08:55 6.2 6.3 80.1 997.0 4.9 ESE 14.2 ENE 0.0 43.5
09:00 6.2 6.3 80.3 997.1 4.6 ENE 11.5 NNE 0.0 42.9
09:05 6.2 6.3 80.0 997.1 7.0 NE 19.6 ENE 0.0 46.5
09:10 6.1 6.3 80.0 997.3 2.9 ENE 8.8 N 0.0 49.3
09:15 6.2 6.4 79.9 997.3 4.2 NE 11.5 ENE 0.0 58.4
09:20 6.2 6.5 79.5 997.4 4.3 NNE 14.2 NE 0.0 82.4
09:25 6.2 6.7 79.3 997.3 2.1 E 11.5 NE 0.0 94.0
09:30 6.4 7.0 79.1 997.4 4.7 ENE 11.5 NE 0.0 124.1
09:35 6.6 7.2 78.1 997.5 3.1 NE 8.8 ENE 0.0 82.6
09:40 6.6 7.2 77.5 997.6 2.9 WSW 8.8 W 0.0 75.0
09:45 6.6 7.2 78.0 997.5 7.8 ENE 16.9 NE 0.0 101.6
09:50 6.7 7.3 78.0 997.4 5.0 NE 14.2 ENE 0.0 129.4
09:55 6.8 7.6 77.1 997.6 7.8 NE 19.6 NNE 0.0 184.7
10:00 7.2 8.7 75.8 997.5 5.1 ENE 14.2 NE 0.0 321.8
10:05 7.7 9.0 73.4 997.5 5.3 NW 11.5 W 0.0 197.9
10:10 7.8 8.8 72.6 997.4 5.2 NE 16.9 NE 0.0 174.8
10:15 7.8 8.9 73.2 997.4 4.0 NNE 8.8 NNE 0.0 181.8
10:20 7.9 9.1 73.2 997.3 4.8 ENE 11.5 ENE 0.0 187.0
10:25 7.9 9.1 72.6 997.2 6.5 NE 16.9 ESE 0.0 192.0
10:30 7.8 9.0 72.5 997.1 8.7 NE 27.7 ENE 0.0 184.0
10:35 7.7 8.7 73.0 997.2 9.3 NE 22.3 ENE 0.0 183.4
10:40 7.7 8.9 72.9 997.1 11.4 NE 22.3 ENE 0.0 203.4
10:45 7.7 8.7 72.8 997.1 6.6 ENE 16.9 ENE 0.0 177.7
10:50 7.9 9.1 72.6 997.0 6.7 NE 16.9 ENE 0.0 215.1
10:55 8.1 9.2 71.8 997.0 1.9 E 8.8 E 0.0 163.0
11:00 8.3 9.4 71.6 997.0 2.0 E 8.8 NNW 0.0 145.4
11:05 8.4 9.3 70.3 997.0 4.9 NNW 16.9 NNE 0.0 139.7
11:10 8.3 9.4 70.2 996.9 4.8 N 11.5 ENE 0.0 142.4
11:15 8.3 9.3 70.5 997.0 3.9 NNE 11.5 NE 0.0 150.0
11:20 8.4 9.3 70.2 996.8 4.2 NNE 14.2 NNW 0.0 116.4
11:25 8.3 9.2 70.9 996.8 5.3 NE 16.9 NE 0.0 92.8
11:30 8.3 9.0 71.2 996.8 2.1 ENE 11.5 NNW 0.0 66.1
11:35 8.2 8.7 72.1 996.7 8.7 ENE 25.0 NNE 0.0 65.7
11:40 8.1 8.6 72.4 996.9 6.1 NE 14.2 NNE 0.0 71.5
11:45 8.0 8.5 72.4 996.8 8.0 NE 16.9 E 0.0 52.3
11:50 8.0 8.4 73.3 996.8 4.6 NE 14.2 NE 0.0 62.7
11:55 8.0 8.5 73.6 996.8 4.1 NE 8.8 ENE 0.0 89.3
12:00 8.1 8.7 73.2 996.5 5.8 NE 16.9 NE 0.0 145.4
12:05 8.3 8.9 72.6 996.5 7.2 NE 16.9 NE 0.0 118.6
12:10 8.3 8.8 71.6 996.4 5.9 NE 19.6 NE 0.0 88.7
12:15 8.3 8.9 71.5 996.5 2.9 SSE 11.5 WSW 0.0 148.8
12:20 8.5 9.5 71.1 996.3 2.7 NE 8.8 SE 0.0 172.1
12:25 8.7 9.6 70.2 996.4 4.1 NE 11.5 NE 0.0 178.8
12:30 8.8 9.8 69.8 996.4 3.8 N 11.5 N 0.0 144.4
12:35 8.9 9.8 69.6 996.4 5.0 NNE 14.2 NE 0.0 149.9
12:40 8.9 9.9 70.0 996.3 6.0 NNE 16.9 NNE 0.0 153.6
12:45 8.8 9.6 69.8 996.3 6.0 NE 16.9 NNE 0.0 128.8
12:50 8.6 9.5 70.9 996.3 7.4 NNE 14.2 N 0.0 172.0
12:55 8.7 10.3 71.5 996.2 7.3 NE 16.9 ENE 0.0 419.6
13:00 9.3 10.6 69.4 996.2 7.4 NNE 16.9 NE 0.0 436.7
13:05 9.7 10.2 67.6 995.9 6.1 NE 14.2 NE 0.0 457.2
13:10 10.2 10.8 65.7 995.9 8.3 NNE 19.6 NNE 0.0 482.7
13:15 10.3 10.9 64.6 995.9 7.1 NNE 19.6 ENE 0.0 468.6
13:20 10.7 11.5 63.5 996.1 3.2 S 8.8 SE 0.0 409.2
13:25 10.9 11.9 62.9 996.2 5.4 SSW 14.2 WSW 0.0 484.2
13:30 10.8 12.2 63.3 996.1 7.1 SSW 14.2 SW 0.0 448.3
13:35 10.3 11.4 64.4 996.3 6.4 SSW 14.2 WSW 0.0 181.1
13:40 9.7 10.7 66.7 996.3 8.5 SW 14.2 SW 0.0 178.5
13:45 9.3 10.3 68.3 996.4 6.0 SW 14.2 SW 0.0 208.1
13:50 9.2 10.2 68.2 996.5 4.9 SSW 14.2 SW 0.0 213.8
13:55 9.0 9.9 68.8 996.4 4.9 S 11.5 SSE 0.0 263.9
14:00 9.3 10.1 67.9 996.4 2.8 SSW 8.8 S 0.0 220.2
14:05 9.3 9.9 66.9 996.2 2.3 SW 8.8 SE 0.0 140.7
14:10 9.1 9.8 67.8 996.5 4.3 WSW 8.8 W 0.0 134.5
14:15 9.0 9.5 68.0 996.7 8.3 WSW 16.9 WSW 0.0 137.4
14:20 8.9 9.5 68.5 996.8 5.4 WSW 11.5 WSW 0.0 140.6
14:25 8.8 9.5 68.1 996.7 6.2 WSW 14.2 WSW 0.0 139.6
14:30 8.9 9.5 68.7 996.7 2.0 W 8.8 W 0.0 119.9
14:35 8.9 9.5 68.8 996.8 0.0 NNE 0.0 ESE 0.0 108.8
14:40 9.0 9.4 69.7 996.8 0.5 WNW 6.1 W 0.0 96.4
14:45 8.9 9.3 68.7 997.0 0.7 WSW 8.8 W 0.0 92.2
14:50 8.8 9.2 68.0 997.1 3.4 WSW 8.8 W 0.0 86.7
14:55 8.8 9.0 68.1 997.2 2.5 WSW 6.1 W 0.0 81.5
15:00 8.8 8.9 70.4 997.2 1.0 W 6.1 WNW 0.0 74.7
15:05 8.7 8.9 71.4 997.3 0.0 W 3.4 W 0.0 65.3
15:10 8.5 8.7 72.9 997.3 0.0 NNE 0.0 WNW 0.0 56.5
15:15 8.4 8.5 74.9 997.3 0.2 ENE 3.4 ENE 0.0 50.6
15:20 8.3 8.3 75.0 997.4 0.0 NNE 0.0 ENE 0.0 44.7
15:25 8.1 8.1 76.8 997.4 1.3 NE 3.4 NE 0.0 39.7
15:30 7.9 7.8 77.7 997.4 1.1 ENE 3.4 NE 0.0 35.2
15:35 7.8 7.7 78.1 997.5 0.0 NNE 0.0 ESE 0.0 30.6
15:40 7.6 7.5 79.9 997.5 2.1 ENE 8.8 E 0.0 25.6
15:45 7.6 7.4 80.4 997.5 1.2 NE 6.1 NE 0.0 20.6
15:50 7.6 7.3 79.4 997.6 4.1 ESE 8.8 SE 0.0 15.4
15:55 7.6 7.3 77.4 997.6 0.8 NW 6.1 WNW 0.0 11.7
16:00 7.7 7.2 78.7 997.7 0.7 NNE 6.1 NE 0.0 9.3
16:05 7.6 7.0 79.5 997.7 0.6 WNW 3.4 W 0.0 7.1
16:10 7.4 6.8 80.3 997.7 0.5 NE 3.4 NE 0.0 5.5
16:15 7.2 6.6 81.1 997.8 2.6 NW 6.1 WNW 0.0 5.1
16:20 7.1 6.5 81.4 997.7 3.1 NNE 6.1 N 0.0 4.4
16:25 7.0 6.3 82.2 997.8 2.8 NNW 8.8 WNW 0.0 4.5
16:30 6.9 6.2 82.6 997.9 2.4 W 8.8 W 0.0 2.0
16:35 6.7 6.0 82.7 998.0 1.5 E 6.1 E 0.0 0.8
16:40 6.6 5.8 83.5 998.0 0.0 NNE 0.0 ESE 0.0 0.5
16:45 6.4 5.6 84.4 998.1 0.5 NW 3.4 NW 0.0 0.4
16:50 6.3 5.5 85.2 998.1 2.5 NW 8.8 W 0.0 0.3
16:55 6.2 5.5 85.4 998.0 3.0 WNW 6.1 NW 0.0 0.3
17:00 6.1 5.3 85.7 998.1 2.5 NNE 6.1 ENE 0.0 0.3
17:05 6.0 5.4 85.7 998.3 2.6 SW 6.1 S 0.0 0.2
17:10 5.9 5.2 86.0 998.4 1.3 N 6.1 W 0.0 0.2
17:15 5.8 5.1 86.6 998.5 1.4 NNW 6.1 NW 0.0 0.3
17:20 5.7 5.0 87.0 998.4 5.0 N 8.8 N 0.0 0.2
17:25 6.0 5.2 84.6 998.4 1.9 W 8.8 N 0.0 0.2
17:30 6.0 5.0 84.3 998.4 1.5 NE 6.1 ENE 0.0 0.2
17:35 5.9 4.9 83.5 998.5 1.1 NNW 6.1 N 0.0 0.3
17:40 5.8 4.7 84.3 998.5 2.4 WSW 6.1 WSW 0.0 0.3
17:45 5.6 4.6 85.5 998.5 2.1 NNW 6.1 W 0.0 0.3
17:50 5.4 4.5 85.8 998.5 1.5 WNW 6.1 NNW 0.0 0.3
17:55 5.4 4.5 85.5 998.6 3.9 W 11.5 W 0.0 0.3
18:00 5.2 4.2 85.4 998.5 0.9 NW 3.4 WNW 0.0 0.2
18:05 5.0 4.0 85.9 998.6 1.4 WSW 6.1 SW 0.0 0.3
18:10 4.9 3.8 86.4 998.7 0.5 SW 3.4 SW 0.0 0.2
18:15 4.6 3.5 87.2 998.8 0.3 WNW 3.4 NW 0.0 0.3
18:20 4.5 3.2 87.6 998.9 1.1 NW 6.1 NW 0.0 0.3
18:25 4.3 3.0 88.1 998.9 2.8 NE 6.1 NE 0.0 0.3
18:30 4.2 3.0 88.4 998.9 3.2 W 8.8 W 0.0 0.3
18:35 4.1 2.9 88.6 999.0 1.0 NE 6.1 E 0.0 0.2
18:40 4.0 2.8 89.0 999.1 2.9 NW 8.8 W 0.0 0.3
18:45 3.9 2.7 89.3 999.1 1.5 NE 6.1 NE 0.0 0.3
18:50 3.8 2.5 89.5 999.2 1.0 WNW 6.1 WNW 0.0 0.3
18:55 3.7 2.4 89.8 999.2 4.0 NW 8.8 W 0.0 0.3
19:00 3.7 2.3 89.7 999.3 2.5 NW 6.1 NW 0.0 0.3
19:05 3.7 2.3 89.0 999.4 1.3 W 8.8 WNW 0.0 0.3
19:10 3.5 2.2 89.1 999.4 2.4 ENE 6.1 NNE 0.0 0.3
19:15 3.4 1.9 89.3 999.4 0.1 NNE 3.4 NNE 0.0 0.2
19:20 3.3 1.8 89.3 999.5 0.7 WNW 6.1 WNW 0.0 0.3
19:25 3.2 1.8 89.2 999.6 0.4 SW 6.1 SW 0.0 0.3
19:30 3.1 1.6 89.5 999.5 2.2 NNE 6.1 NNE 0.0 0.3
19:35 3.0 1.7 90.0 999.7 2.7 WNW 6.1 W 0.0 0.3
19:40 3.0 1.6 89.9 999.6 1.0 WNW 6.1 W 0.0 0.3
19:45 2.9 1.5 89.3 999.7 3.9 N 8.8 NW 0.0 0.3
19:50 2.8 1.5 88.9 999.7 0.4 ESE 6.1 ESE 0.0 0.3
19:55 2.6 1.2 89.2 999.7 0.8 E 6.1 ESE 0.0 0.8
20:00 2.4 1.0 89.6 999.8 0.3 ESE 6.1 ESE 0.0 1.3
Màxima 11.0 12.2 96.8 1001.6 11.4 NE 27.7 ENE 0.0 484.2
Mínima 0.8 -0.2 62.9 995.9
Total 0.0